sensor_id;sensor_type;location;lat;lon;timestamp;pressure;altitude;pressure_sealevel;temperature;humidity
13765;BME280;6953;48.810;9.204;2023-06-14T00:00:45;98207.94;;;16.16;65.45
13765;BME280;6953;48.810;9.204;2023-06-14T00:03:11;98200.91;;;15.94;65.80
13765;BME280;6953;48.810;9.204;2023-06-14T00:05:39;98216.44;;;15.99;66.21
13765;BME280;6953;48.810;9.204;2023-06-14T00:08:09;98211.41;;;15.85;66.01
13765;BME280;6953;48.810;9.204;2023-06-14T00:10:35;98034.78;;;14.72;65.09
13765;BME280;6953;48.810;9.204;2023-06-14T00:13:04;98170.88;;;15.53;65.82
13765;BME280;6953;48.810;9.204;2023-06-14T00:15:31;98216.59;;;15.75;66.16
13765;BME280;6953;48.810;9.204;2023-06-14T00:17:57;98232.94;;;15.80;65.99
13765;BME280;6953;48.810;9.204;2023-06-14T00:20:26;98239.44;;;15.76;66.64
13765;BME280;6953;48.810;9.204;2023-06-14T00:22:51;97978.41;;;14.19;67.98
13765;BME280;6953;48.810;9.204;2023-06-14T00:25:17;98230.22;;;15.60;69.46
13765;BME280;6953;48.810;9.204;2023-06-14T00:27:42;98143.75;;;15.29;68.78
13765;BME280;6953;48.810;9.204;2023-06-14T00:30:08;98034.44;;;14.66;67.23
13765;BME280;6953;48.810;9.204;2023-06-14T00:32:33;97966.09;;;14.19;66.22
13765;BME280;6953;48.810;9.204;2023-06-14T00:34:58;98222.84;;;15.74;65.53
13765;BME280;6953;48.810;9.204;2023-06-14T00:37:24;97915.44;;;13.92;64.65
13765;BME280;6953;48.810;9.204;2023-06-14T00:39:49;98220.75;;;15.47;64.63
13765;BME280;6953;48.810;9.204;2023-06-14T00:42:24;98231.75;;;15.73;65.21
13765;BME280;6953;48.810;9.204;2023-06-14T00:44:50;98132.81;;;15.12;65.63
13765;BME280;6953;48.810;9.204;2023-06-14T00:47:15;98232.84;;;15.60;66.21
13765;BME280;6953;48.810;9.204;2023-06-14T00:49:41;98218.34;;;15.55;66.52
13765;BME280;6953;48.810;9.204;2023-06-14T00:52:07;98223.13;;;15.50;66.88
13765;BME280;6953;48.810;9.204;2023-06-14T00:54:32;98082.44;;;14.60;66.48
13765;BME280;6953;48.810;9.204;2023-06-14T00:56:58;98223.03;;;15.40;66.17
13765;BME280;6953;48.810;9.204;2023-06-14T00:59:23;98227.72;;;15.37;65.21
13765;BME280;6953;48.810;9.204;2023-06-14T01:01:48;98146.41;;;14.85;65.34
13765;BME280;6953;48.810;9.204;2023-06-14T01:04:14;98227.00;;;15.35;65.86
13765;BME280;6953;48.810;9.204;2023-06-14T01:07:02;97928.00;;;13.56;66.65
13765;BME280;6953;48.810;9.204;2023-06-14T01:09:47;98152.44;;;14.76;67.36
13765;BME280;6953;48.810;9.204;2023-06-14T01:12:33;97966.13;;;13.63;66.64
13765;BME280;6953;48.810;9.204;2023-06-14T01:15:00;98232.88;;;15.16;66.90
13765;BME280;6953;48.810;9.204;2023-06-14T01:17:27;98231.31;;;15.14;68.13
13765;BME280;6953;48.810;9.204;2023-06-14T01:19:58;98265.78;;;15.12;68.80
13765;BME280;6953;48.810;9.204;2023-06-14T01:22:27;98238.28;;;15.15;69.40
13765;BME280;6953;48.810;9.204;2023-06-14T01:24:52;98246.44;;;15.12;69.13
13765;BME280;6953;48.810;9.204;2023-06-14T01:27:22;98017.81;;;13.76;69.17
13765;BME280;6953;48.810;9.204;2023-06-14T01:29:50;98203.19;;;14.80;69.28
13765;BME280;6953;48.810;9.204;2023-06-14T01:32:16;97991.97;;;13.47;69.25
13765;BME280;6953;48.810;9.204;2023-06-14T01:34:43;98213.75;;;14.80;70.01
13765;BME280;6953;48.810;9.204;2023-06-14T01:37:08;98228.53;;;14.82;69.75
13765;BME280;6953;48.810;9.204;2023-06-14T01:39:35;98245.94;;;14.85;69.12
13765;BME280;6953;48.810;9.204;2023-06-14T01:42:01;98262.13;;;14.80;68.68
13765;BME280;6953;48.810;9.204;2023-06-14T01:44:27;98273.41;;;14.82;67.91
13765;BME280;6953;48.810;9.204;2023-06-14T01:46:54;98108.00;;;14.03;67.43
13765;BME280;6953;48.810;9.204;2023-06-14T01:49:20;97976.22;;;13.24;68.13
13765;BME280;6953;48.810;9.204;2023-06-14T01:51:45;98236.94;;;14.76;68.76
13765;BME280;6953;48.810;9.204;2023-06-14T01:54:10;98240.75;;;14.72;69.54
13765;BME280;6953;48.810;9.204;2023-06-14T01:56:36;98266.44;;;14.70;69.51
13765;BME280;6953;48.810;9.204;2023-06-14T01:59:01;98237.63;;;14.67;70.31
13765;BME280;6953;48.810;9.204;2023-06-14T02:01:26;97985.00;;;13.12;70.60
13765;BME280;6953;48.810;9.204;2023-06-14T02:03:52;98242.41;;;14.62;71.61
13765;BME280;6953;48.810;9.204;2023-06-14T02:06:18;98131.09;;;13.89;72.21
13765;BME280;6953;48.810;9.204;2023-06-14T02:08:44;98252.22;;;14.50;72.75
13765;BME280;6953;48.810;9.204;2023-06-14T02:11:10;98227.72;;;14.37;73.42
13765;BME280;6953;48.810;9.204;2023-06-14T02:13:35;98220.59;;;14.26;74.22
13765;BME280;6953;48.810;9.204;2023-06-14T02:16:01;98253.84;;;14.40;74.74
13765;BME280;6953;48.810;9.204;2023-06-14T02:18:26;98182.03;;;13.89;75.36
13765;BME280;6953;48.810;9.204;2023-06-14T02:20:52;98243.84;;;14.21;75.72
13765;BME280;6953;48.810;9.204;2023-06-14T02:23:18;98264.97;;;14.21;76.46
13765;BME280;6953;48.810;9.204;2023-06-14T02:25:44;97958.72;;;12.52;76.27
13765;BME280;6953;48.810;9.204;2023-06-14T02:28:11;98160.22;;;13.64;76.08
13765;BME280;6953;48.810;9.204;2023-06-14T02:30:36;98249.75;;;14.12;75.49
13765;BME280;6953;48.810;9.204;2023-06-14T02:33:01;98268.44;;;14.09;75.62
13765;BME280;6953;48.810;9.204;2023-06-14T02:35:28;97954.22;;;12.42;75.84
13765;BME280;6953;48.810;9.204;2023-06-14T02:37:53;98138.50;;;13.37;76.03
13765;BME280;6953;48.810;9.204;2023-06-14T02:40:19;98249.06;;;13.98;76.35
13765;BME280;6953;48.810;9.204;2023-06-14T02:42:45;98111.94;;;13.17;76.73
13765;BME280;6953;48.810;9.204;2023-06-14T02:45:11;98247.13;;;13.89;77.15
13765;BME280;6953;48.810;9.204;2023-06-14T02:47:36;98131.22;;;13.17;77.08
13765;BME280;6953;48.810;9.204;2023-06-14T02:50:02;98241.91;;;13.76;77.75
13765;BME280;6953;48.810;9.204;2023-06-14T02:52:28;98217.91;;;13.56;78.11
13765;BME280;6953;48.810;9.204;2023-06-14T02:54:53;98247.00;;;13.67;78.20
13765;BME280;6953;48.810;9.204;2023-06-14T02:57:19;98184.81;;;13.29;78.88
13765;BME280;6953;48.810;9.204;2023-06-14T02:59:45;98207.78;;;13.27;79.01
13765;BME280;6953;48.810;9.204;2023-06-14T03:02:10;98246.59;;;13.60;78.91
13765;BME280;6953;48.810;9.204;2023-06-14T03:04:35;98283.72;;;13.57;79.09
13765;BME280;6953;48.810;9.204;2023-06-14T03:07:02;98254.59;;;13.59;78.83
13765;BME280;6953;48.810;9.204;2023-06-14T03:09:34;98244.06;;;13.59;78.57
13765;BME280;6953;48.810;9.204;2023-06-14T03:11:59;98241.16;;;13.51;78.80
13765;BME280;6953;48.810;9.204;2023-06-14T03:14:25;98256.19;;;13.61;79.03
13765;BME280;6953;48.810;9.204;2023-06-14T03:16:50;98250.28;;;13.58;78.90
13765;BME280;6953;48.810;9.204;2023-06-14T03:19:16;98037.16;;;12.35;78.69
13765;BME280;6953;48.810;9.204;2023-06-14T03:21:41;98256.81;;;13.65;78.32
13765;BME280;6953;48.810;9.204;2023-06-14T03:24:09;98252.41;;;13.65;78.42
13765;BME280;6953;48.810;9.204;2023-06-14T03:26:34;98220.84;;;13.41;78.39
13765;BME280;6953;48.810;9.204;2023-06-14T03:29:02;98237.78;;;13.49;78.42
13765;BME280;6953;48.810;9.204;2023-06-14T03:31:28;98303.94;;;13.69;77.68
13765;BME280;6953;48.810;9.204;2023-06-14T03:33:58;98296.75;;;13.71;77.35
13765;BME280;6953;48.810;9.204;2023-06-14T03:36:23;98301.94;;;13.73;77.68
13765;BME280;6953;48.810;9.204;2023-06-14T03:38:48;98281.47;;;13.76;78.01
13765;BME280;6953;48.810;9.204;2023-06-14T03:41:13;98216.72;;;13.37;79.05
13765;BME280;6953;48.810;9.204;2023-06-14T03:43:39;98277.19;;;13.86;79.28
13765;BME280;6953;48.810;9.204;2023-06-14T03:46:04;98237.53;;;13.64;79.30
13765;BME280;6953;48.810;9.204;2023-06-14T03:48:30;98283.63;;;13.95;79.77
13765;BME280;6953;48.810;9.204;2023-06-14T03:50:55;98287.81;;;13.97;80.00
13765;BME280;6953;48.810;9.204;2023-06-14T03:53:21;98295.59;;;13.99;80.48
13765;BME280;6953;48.810;9.204;2023-06-14T03:55:49;98289.16;;;14.03;80.61
13765;BME280;6953;48.810;9.204;2023-06-14T03:58:15;98299.28;;;14.09;80.57
13765;BME280;6953;48.810;9.204;2023-06-14T04:00:40;98222.41;;;13.66;80.44
13765;BME280;6953;48.810;9.204;2023-06-14T04:03:06;98052.53;;;12.77;79.93
13765;BME280;6953;48.810;9.204;2023-06-14T04:05:31;98035.28;;;12.73;79.09
13765;BME280;6953;48.810;9.204;2023-06-14T04:07:57;98237.47;;;14.00;78.94
13765;BME280;6953;48.810;9.204;2023-06-14T04:10:24;98238.47;;;14.10;78.59
13765;BME280;6953;48.810;9.204;2023-06-14T04:12:49;98308.31;;;14.64;78.39
13765;BME280;6953;48.810;9.204;2023-06-14T04:15:15;98302.97;;;14.87;77.85
13765;BME280;6953;48.810;9.204;2023-06-14T04:17:41;98115.06;;;14.03;77.43
13765;BME280;6953;48.810;9.204;2023-06-14T04:20:07;98309.69;;;15.48;76.42
13765;BME280;6953;48.810;9.204;2023-06-14T04:22:34;98321.22;;;15.79;75.67
13765;BME280;6953;48.810;9.204;2023-06-14T04:25:01;98344.25;;;16.10;74.81
13765;BME280;6953;48.810;9.204;2023-06-14T04:27:27;98309.66;;;16.45;73.78
13765;BME280;6953;48.810;9.204;2023-06-14T04:29:56;98292.50;;;16.60;72.33
13765;BME280;6953;48.810;9.204;2023-06-14T04:32:28;98255.31;;;16.81;69.85
13765;BME280;6953;48.810;9.204;2023-06-14T04:34:59;98321.25;;;17.36;67.78
13765;BME280;6953;48.810;9.204;2023-06-14T04:37:27;98316.97;;;17.84;65.47
13765;BME280;6953;48.810;9.204;2023-06-14T04:39:54;98103.03;;;16.95;63.51
13765;BME280;6953;48.810;9.204;2023-06-14T04:42:21;98319.81;;;18.60;62.17
13765;BME280;6953;48.810;9.204;2023-06-14T04:44:50;98289.44;;;18.81;61.60
13765;BME280;6953;48.810;9.204;2023-06-14T04:47:16;98345.22;;;19.47;61.35
13765;BME280;6953;48.810;9.204;2023-06-14T04:49:42;98279.78;;;19.54;59.43
13765;BME280;6953;48.810;9.204;2023-06-14T04:52:07;98314.19;;;20.28;58.01
13765;BME280;6953;48.810;9.204;2023-06-14T04:54:36;98288.63;;;20.53;56.61
13765;BME280;6953;48.810;9.204;2023-06-14T04:57:03;98350.09;;;21.21;54.37
13765;BME280;6953;48.810;9.204;2023-06-14T04:59:29;98149.38;;;20.33;51.43
13765;BME280;6953;48.810;9.204;2023-06-14T05:01:58;98286.50;;;21.59;48.95
13765;BME280;6953;48.810;9.204;2023-06-14T05:04:25;98254.38;;;21.77;47.94
13765;BME280;6953;48.810;9.204;2023-06-14T05:06:52;98360.75;;;22.56;47.67
13765;BME280;6953;48.810;9.204;2023-06-14T05:09:19;98308.63;;;22.60;46.50
13765;BME280;6953;48.810;9.204;2023-06-14T05:11:45;98211.44;;;22.27;45.07
13765;BME280;6953;48.810;9.204;2023-06-14T05:14:11;98357.03;;;23.30;44.80
13765;BME280;6953;48.810;9.204;2023-06-14T05:16:36;98362.91;;;23.49;43.83
13765;BME280;6953;48.810;9.204;2023-06-14T05:19:03;98316.72;;;23.31;42.99
13765;BME280;6953;48.810;9.204;2023-06-14T05:21:29;98355.97;;;23.95;41.89
13765;BME280;6953;48.810;9.204;2023-06-14T05:23:55;98358.53;;;24.26;40.23
13765;BME280;6953;48.810;9.204;2023-06-14T05:26:20;98296.44;;;24.07;38.18
13765;BME280;6953;48.810;9.204;2023-06-14T05:28:48;98368.94;;;24.68;35.65
13765;BME280;6953;48.810;9.204;2023-06-14T05:31:14;98375.06;;;25.07;34.45
13765;BME280;6953;48.810;9.204;2023-06-14T05:33:40;98356.81;;;25.47;34.01
13765;BME280;6953;48.810;9.204;2023-06-14T05:36:05;98377.94;;;25.87;33.49
13765;BME280;6953;48.810;9.204;2023-06-14T05:38:30;98323.88;;;25.82;33.17
13765;BME280;6953;48.810;9.204;2023-06-14T05:40:56;98390.19;;;26.61;32.21
13765;BME280;6953;48.810;9.204;2023-06-14T05:43:21;98228.19;;;26.02;31.38
13765;BME280;6953;48.810;9.204;2023-06-14T05:45:46;98318.97;;;26.99;30.07
13765;BME280;6953;48.810;9.204;2023-06-14T05:48:12;98380.97;;;27.41;29.86
13765;BME280;6953;48.810;9.204;2023-06-14T05:50:37;98401.16;;;27.51;29.49
13765;BME280;6953;48.810;9.204;2023-06-14T05:53:02;98303.75;;;27.34;29.10
13765;BME280;6953;48.810;9.204;2023-06-14T05:55:27;98352.06;;;28.11;28.67
13765;BME280;6953;48.810;9.204;2023-06-14T05:57:53;98414.00;;;28.86;27.23
13765;BME280;6953;48.810;9.204;2023-06-14T06:00:18;98406.00;;;29.32;26.07
13765;BME280;6953;48.810;9.204;2023-06-14T06:02:45;98241.00;;;28.67;26.28
13765;BME280;6953;48.810;9.204;2023-06-14T06:05:11;98277.91;;;29.33;26.35
13765;BME280;6953;48.810;9.204;2023-06-14T06:07:37;98395.03;;;30.30;26.46
13765;BME280;6953;48.810;9.204;2023-06-14T06:10:03;98310.72;;;30.07;25.74
13765;BME280;6953;48.810;9.204;2023-06-14T06:12:30;98430.03;;;31.01;24.75
13765;BME280;6953;48.810;9.204;2023-06-14T06:14:55;98425.31;;;31.34;24.16
13765;BME280;6953;48.810;9.204;2023-06-14T06:17:20;98391.53;;;31.30;24.43
13765;BME280;6953;48.810;9.204;2023-06-14T06:19:46;98425.56;;;31.64;23.90
13765;BME280;6953;48.810;9.204;2023-06-14T06:22:11;98427.50;;;31.81;23.27
13765;BME280;6953;48.810;9.204;2023-06-14T06:24:37;98267.03;;;31.22;22.69
13765;BME280;6953;48.810;9.204;2023-06-14T06:27:03;98462.00;;;32.54;22.00
13765;BME280;6953;48.810;9.204;2023-06-14T06:29:28;98355.69;;;32.26;21.61
13765;BME280;6953;48.810;9.204;2023-06-14T06:31:53;98449.19;;;33.14;21.31
13765;BME280;6953;48.810;9.204;2023-06-14T06:34:21;98442.13;;;33.43;20.59
13765;BME280;6953;48.810;9.204;2023-06-14T06:36:46;98449.09;;;33.68;20.18
13765;BME280;6953;48.810;9.204;2023-06-14T06:39:11;98452.31;;;33.77;19.86
13765;BME280;6953;48.810;9.204;2023-06-14T06:41:38;98437.47;;;33.61;20.53
13765;BME280;6953;48.810;9.204;2023-06-14T06:44:07;98440.56;;;33.65;20.91
13765;BME280;6953;48.810;9.204;2023-06-14T06:46:35;98285.63;;;32.64;20.05
13765;BME280;6953;48.810;9.204;2023-06-14T06:49:00;98463.47;;;33.57;20.32
13765;BME280;6953;48.810;9.204;2023-06-14T06:51:26;98409.31;;;33.67;19.83
13765;BME280;6953;48.810;9.204;2023-06-14T06:53:55;98476.38;;;34.43;19.29
13765;BME280;6953;48.810;9.204;2023-06-14T06:56:21;98480.19;;;34.88;18.57
13765;BME280;6953;48.810;9.204;2023-06-14T06:58:49;98354.78;;;34.31;18.69
13765;BME280;6953;48.810;9.204;2023-06-14T07:01:15;98486.88;;;35.20;18.54
13765;BME280;6953;48.810;9.204;2023-06-14T07:03:41;98491.13;;;35.27;18.82
13765;BME280;6953;48.810;9.204;2023-06-14T07:06:06;98490.97;;;35.45;18.91
13765;BME280;6953;48.810;9.204;2023-06-14T07:08:31;98314.75;;;34.82;18.48
13765;BME280;6953;48.810;9.204;2023-06-14T07:10:57;98499.56;;;36.21;18.34
13765;BME280;6953;48.810;9.204;2023-06-14T07:13:22;98494.81;;;36.33;18.35
13765;BME280;6953;48.810;9.204;2023-06-14T07:15:47;98485.22;;;36.31;17.50
13765;BME280;6953;48.810;9.204;2023-06-14T07:18:13;98501.78;;;36.73;17.36
13765;BME280;6953;48.810;9.204;2023-06-14T07:20:38;98514.91;;;37.09;16.45
13765;BME280;6953;48.810;9.204;2023-06-14T07:23:04;98530.56;;;37.14;16.72
13765;BME280;6953;48.810;9.204;2023-06-14T07:25:30;98510.69;;;37.40;16.75
13765;BME280;6953;48.810;9.204;2023-06-14T07:27:55;98336.09;;;36.23;15.90
13765;BME280;6953;48.810;9.204;2023-06-14T07:30:21;98526.19;;;37.51;15.88
13765;BME280;6953;48.810;9.204;2023-06-14T07:32:51;98515.72;;;37.48;15.65
13765;BME280;6953;48.810;9.204;2023-06-14T07:35:16;98524.63;;;37.59;16.24
13765;BME280;6953;48.810;9.204;2023-06-14T07:37:41;98549.88;;;37.61;15.96
13765;BME280;6953;48.810;9.204;2023-06-14T07:40:07;98521.31;;;37.79;15.69
13765;BME280;6953;48.810;9.204;2023-06-14T07:42:36;98479.16;;;37.85;16.16
13765;BME280;6953;48.810;9.204;2023-06-14T07:45:04;98468.63;;;37.98;15.33
13765;BME280;6953;48.810;9.204;2023-06-14T07:47:31;98535.31;;;38.30;15.58
13765;BME280;6953;48.810;9.204;2023-06-14T07:49:56;98475.88;;;38.14;15.64
13765;BME280;6953;48.810;9.204;2023-06-14T07:52:21;98516.63;;;38.01;15.89
13765;BME280;6953;48.810;9.204;2023-06-14T07:54:47;98358.69;;;37.37;15.70
13765;BME280;6953;48.810;9.204;2023-06-14T07:57:12;98531.28;;;38.69;16.33
13765;BME280;6953;48.810;9.204;2023-06-14T07:59:37;98517.66;;;38.84;15.35
13765;BME280;6953;48.810;9.204;2023-06-14T08:02:04;98511.34;;;38.88;15.82
13765;BME280;6953;48.810;9.204;2023-06-14T08:04:29;98470.97;;;38.16;15.67
13765;BME280;6953;48.810;9.204;2023-06-14T08:06:54;98374.41;;;38.09;15.97
13765;BME280;6953;48.810;9.204;2023-06-14T08:09:20;98516.41;;;39.06;15.86
13765;BME280;6953;48.810;9.204;2023-06-14T08:11:45;98517.13;;;38.87;15.85
13765;BME280;6953;48.810;9.204;2023-06-14T08:14:11;98359.28;;;37.75;15.91
13765;BME280;6953;48.810;9.204;2023-06-14T08:16:36;98512.06;;;38.74;16.21
13765;BME280;6953;48.810;9.204;2023-06-14T08:19:02;98526.25;;;38.97;16.53
13765;BME280;6953;48.810;9.204;2023-06-14T08:21:28;98510.03;;;38.96;15.49
13765;BME280;6953;48.810;9.204;2023-06-14T08:23:57;98509.94;;;39.27;15.78
13765;BME280;6953;48.810;9.204;2023-06-14T08:26:22;98474.13;;;39.64;15.28
13765;BME280;6953;48.810;9.204;2023-06-14T08:28:48;98523.19;;;40.16;14.97
13765;BME280;6953;48.810;9.204;2023-06-14T08:31:13;98517.69;;;40.26;14.70
13765;BME280;6953;48.810;9.204;2023-06-14T08:33:38;98446.53;;;39.39;15.24
13765;BME280;6953;48.810;9.204;2023-06-14T08:36:08;98521.81;;;40.29;14.55
13765;BME280;6953;48.810;9.204;2023-06-14T08:38:33;98383.88;;;39.26;14.40
13765;BME280;6953;48.810;9.204;2023-06-14T08:41:00;98513.00;;;40.07;15.20
13765;BME280;6953;48.810;9.204;2023-06-14T08:43:26;98503.38;;;40.19;14.64
13765;BME280;6953;48.810;9.204;2023-06-14T08:45:54;98528.19;;;40.74;14.62
13765;BME280;6953;48.810;9.204;2023-06-14T08:48:23;98513.59;;;40.24;14.68
13765;BME280;6953;48.810;9.204;2023-06-14T08:50:51;98486.88;;;40.19;15.40
13765;BME280;6953;48.810;9.204;2023-06-14T08:53:18;98519.63;;;40.31;14.94
13765;BME280;6953;48.810;9.204;2023-06-14T08:55:44;98524.63;;;40.84;14.19
13765;BME280;6953;48.810;9.204;2023-06-14T08:58:10;98487.06;;;41.12;14.71
13765;BME280;6953;48.810;9.204;2023-06-14T09:00:39;98535.84;;;41.27;13.61
13765;BME280;6953;48.810;9.204;2023-06-14T09:03:06;98527.78;;;41.45;13.78
13765;BME280;6953;48.810;9.204;2023-06-14T09:05:38;98376.59;;;39.96;14.35
13765;BME280;6953;48.810;9.204;2023-06-14T09:08:04;98473.56;;;41.26;13.61
13765;BME280;6953;48.810;9.204;2023-06-14T09:10:31;98374.66;;;41.24;13.47
13765;BME280;6953;48.810;9.204;2023-06-14T09:12:58;98384.75;;;41.82;12.96
13765;BME280;6953;48.810;9.204;2023-06-14T09:15:25;98421.81;;;42.43;12.44
13765;BME280;6953;48.810;9.204;2023-06-14T09:17:51;98527.34;;;42.97;12.59
13765;BME280;6953;48.810;9.204;2023-06-14T09:20:16;98539.88;;;42.84;13.07
13765;BME280;6953;48.810;9.204;2023-06-14T09:22:45;98498.34;;;42.66;12.54
13765;BME280;6953;48.810;9.204;2023-06-14T09:25:11;98550.47;;;43.06;12.51
13765;BME280;6953;48.810;9.204;2023-06-14T09:27:40;98420.75;;;42.01;12.89
13765;BME280;6953;48.810;9.204;2023-06-14T09:30:09;98532.09;;;43.19;12.85
13765;BME280;6953;48.810;9.204;2023-06-14T09:32:38;98545.66;;;43.86;12.27
13765;BME280;6953;48.810;9.204;2023-06-14T09:35:07;98501.19;;;44.01;11.89
13765;BME280;6953;48.810;9.204;2023-06-14T09:37:33;98551.91;;;44.52;11.45
13765;BME280;6953;48.810;9.204;2023-06-14T09:39:59;98569.31;;;45.03;11.63
13765;BME280;6953;48.810;9.204;2023-06-14T09:42:25;98410.63;;;44.20;10.66
13765;BME280;6953;48.810;9.204;2023-06-14T09:44:55;98389.53;;;42.90;12.27
13765;BME280;6953;48.810;9.204;2023-06-14T09:47:21;98547.19;;;44.16;11.79
13765;BME280;6953;48.810;9.204;2023-06-14T09:49:48;98393.69;;;43.90;11.45
13765;BME280;6953;48.810;9.204;2023-06-14T09:52:16;98542.41;;;45.62;11.28
13765;BME280;6953;48.810;9.204;2023-06-14T09:54:44;98504.06;;;45.77;10.16
13765;BME280;6953;48.810;9.204;2023-06-14T09:57:11;98549.13;;;46.59;9.80
13765;BME280;6953;48.810;9.204;2023-06-14T09:59:40;98535.72;;;47.04;9.68
13765;BME280;6953;48.810;9.204;2023-06-14T10:02:11;98550.97;;;47.15;9.75
13765;BME280;6953;48.810;9.204;2023-06-14T10:04:42;98554.66;;;45.61;9.96
13765;BME280;6953;48.810;9.204;2023-06-14T10:07:11;98547.53;;;45.95;10.48
13765;BME280;6953;48.810;9.204;2023-06-14T10:09:37;98548.50;;;46.62;9.45
13765;BME280;6953;48.810;9.204;2023-06-14T10:12:04;98414.47;;;45.63;9.63
13765;BME280;6953;48.810;9.204;2023-06-14T10:14:30;98531.00;;;47.13;9.76
13765;BME280;6953;48.810;9.204;2023-06-14T10:17:03;98444.06;;;46.99;9.86
13765;BME280;6953;48.810;9.204;2023-06-14T10:19:50;98548.66;;;46.65;10.21
13765;BME280;6953;48.810;9.204;2023-06-14T10:22:23;98378.22;;;42.35;11.44
13765;BME280;6953;48.810;9.204;2023-06-14T10:24:51;98538.41;;;43.48;11.35
13765;BME280;6953;48.810;9.204;2023-06-14T10:27:16;98554.69;;;44.33;10.47
13765;BME280;6953;48.810;9.204;2023-06-14T10:32:21;98371.69;;;45.16;9.88
13765;BME280;6953;48.810;9.204;2023-06-14T10:34:59;98549.78;;;45.40;10.06
13765;BME280;6953;48.810;9.204;2023-06-14T10:37:25;98529.34;;;43.85;11.23
13765;BME280;6953;48.810;9.204;2023-06-14T10:39:51;98396.28;;;44.18;10.52
13765;BME280;6953;48.810;9.204;2023-06-14T10:42:18;98555.25;;;45.58;9.90
13765;BME280;6953;48.810;9.204;2023-06-14T10:44:52;98476.75;;;45.57;9.41
13765;BME280;6953;48.810;9.204;2023-06-14T10:47:32;98541.94;;;46.44;8.75
13765;BME280;6953;48.810;9.204;2023-06-14T10:50:05;98514.06;;;47.23;8.86
13765;BME280;6953;48.810;9.204;2023-06-14T10:52:33;98553.63;;;48.06;8.65
13765;BME280;6953;48.810;9.204;2023-06-14T10:55:13;98561.66;;;46.34;8.69
13765;BME280;6953;48.810;9.204;2023-06-14T10:57:46;98388.28;;;42.26;11.02
13765;BME280;6953;48.810;9.204;2023-06-14T11:00:14;98564.34;;;42.29;10.61
13765;BME280;6953;48.810;9.204;2023-06-14T11:05:49;98512.81;;;45.17;9.60
13765;BME280;6953;48.810;9.204;2023-06-14T11:11:07;98475.09;;;46.63;9.19
13765;BME280;6953;48.810;9.204;2023-06-14T11:13:33;98549.97;;;47.50;7.89
13765;BME280;6953;48.810;9.204;2023-06-14T11:15:59;98550.28;;;47.87;8.56
13765;BME280;6953;48.810;9.204;2023-06-14T11:18:25;98538.06;;;48.14;7.99
13765;BME280;6953;48.810;9.204;2023-06-14T11:20:52;98559.78;;;48.59;7.89
13765;BME280;6953;48.810;9.204;2023-06-14T11:23:18;98406.91;;;47.34;7.67
13765;BME280;6953;48.810;9.204;2023-06-14T11:25:43;98535.22;;;47.88;8.53
13765;BME280;6953;48.810;9.204;2023-06-14T11:28:09;98549.00;;;47.85;8.52
13765;BME280;6953;48.810;9.204;2023-06-14T11:30:34;98533.50;;;48.26;8.17
13765;BME280;6953;48.810;9.204;2023-06-14T11:32:59;98408.28;;;47.71;7.91
13765;BME280;6953;48.810;9.204;2023-06-14T11:35:25;98434.69;;;48.15;8.09
13765;BME280;6953;48.810;9.204;2023-06-14T11:37:55;98397.63;;;48.32;7.87
13765;BME280;6953;48.810;9.204;2023-06-14T11:40:23;98507.41;;;48.82;7.00
13765;BME280;6953;48.810;9.204;2023-06-14T11:42:49;98536.75;;;48.88;7.20
13765;BME280;6953;48.810;9.204;2023-06-14T11:45:14;98551.56;;;48.63;7.13
13765;BME280;6953;48.810;9.204;2023-06-14T11:47:40;98535.97;;;48.11;7.47
13765;BME280;6953;48.810;9.204;2023-06-14T11:50:07;98537.78;;;48.41;7.68
13765;BME280;6953;48.810;9.204;2023-06-14T11:52:33;98542.50;;;48.23;7.68
13765;BME280;6953;48.810;9.204;2023-06-14T11:54:59;98542.03;;;48.47;7.51
13765;BME280;6953;48.810;9.204;2023-06-14T11:57:25;98541.19;;;48.55;7.74
13765;BME280;6953;48.810;9.204;2023-06-14T11:59:51;98390.09;;;48.24;7.71
13765;BME280;6953;48.810;9.204;2023-06-14T12:02:18;98561.59;;;49.35;6.80
13765;BME280;6953;48.810;9.204;2023-06-14T12:04:46;98551.56;;;49.80;7.04
13765;BME280;6953;48.810;9.204;2023-06-14T12:07:13;98512.13;;;49.44;6.71
13765;BME280;6953;48.810;9.204;2023-06-14T12:12:28;98498.25;;;48.64;7.79
13765;BME280;6953;48.810;9.204;2023-06-14T12:14:55;98546.63;;;48.60;7.52
13765;BME280;6953;48.810;9.204;2023-06-14T12:17:22;98527.28;;;48.72;7.91
13765;BME280;6953;48.810;9.204;2023-06-14T12:19:49;98539.91;;;48.27;7.61
13765;BME280;6953;48.810;9.204;2023-06-14T12:22:16;98545.47;;;48.69;7.23
13765;BME280;6953;48.810;9.204;2023-06-14T12:24:45;98531.88;;;48.51;7.28
13765;BME280;6953;48.810;9.204;2023-06-14T12:27:11;98528.06;;;48.81;7.58
13765;BME280;6953;48.810;9.204;2023-06-14T12:29:41;98550.16;;;49.11;7.32
13765;BME280;6953;48.810;9.204;2023-06-14T12:32:08;98496.81;;;49.21;6.71
13765;BME280;6953;48.810;9.204;2023-06-14T12:34:34;98524.06;;;49.61;7.32
13765;BME280;6953;48.810;9.204;2023-06-14T12:36:59;98375.97;;;48.46;7.20
13765;BME280;6953;48.810;9.204;2023-06-14T12:39:24;98526.28;;;49.39;6.77
13765;BME280;6953;48.810;9.204;2023-06-14T12:41:50;98391.25;;;48.86;6.99
13765;BME280;6953;48.810;9.204;2023-06-14T12:44:16;98533.69;;;49.72;7.03
13765;BME280;6953;48.810;9.204;2023-06-14T12:46:42;98527.72;;;49.07;7.30
13765;BME280;6953;48.810;9.204;2023-06-14T12:49:09;98405.63;;;47.49;7.22
13765;BME280;6953;48.810;9.204;2023-06-14T12:51:35;98521.25;;;47.63;7.73
13765;BME280;6953;48.810;9.204;2023-06-14T12:54:01;98462.28;;;47.14;7.76
13765;BME280;6953;48.810;9.204;2023-06-14T12:56:26;98515.06;;;47.66;7.68
13765;BME280;6953;48.810;9.204;2023-06-14T12:58:52;98352.31;;;46.08;8.01
13765;BME280;6953;48.810;9.204;2023-06-14T13:01:17;98382.84;;;46.08;8.29
13765;BME280;6953;48.810;9.204;2023-06-14T13:03:43;98517.09;;;47.13;8.34
13765;BME280;6953;48.810;9.204;2023-06-14T13:06:08;98520.44;;;47.63;7.85
13765;BME280;6953;48.810;9.204;2023-06-14T13:08:33;98398.69;;;47.21;7.68
13765;BME280;6953;48.810;9.204;2023-06-14T13:10:59;98526.72;;;47.85;7.95
13765;BME280;6953;48.810;9.204;2023-06-14T13:13:24;98380.28;;;47.03;8.07
13765;BME280;6953;48.810;9.204;2023-06-14T13:15:50;98516.88;;;47.87;8.18
13765;BME280;6953;48.810;9.204;2023-06-14T13:18:15;98509.19;;;47.37;8.38
13765;BME280;6953;48.810;9.204;2023-06-14T13:20:41;98467.13;;;46.69;8.70